createdAt,value
2019-02-27T00:02:48.672Z,10.93
2019-02-27T00:06:58.276Z,10.17
2019-02-27T00:11:09.894Z,7.43
2019-02-27T00:15:18.986Z,8.57
2019-02-27T00:19:31.383Z,9.53
2019-02-27T00:23:41.749Z,14.70
2019-02-27T00:27:51.234Z,8.57
2019-02-27T00:32:00.670Z,8.90
2019-02-27T00:36:12.382Z,9.00
2019-02-27T00:40:21.361Z,8.07
2019-02-27T00:44:33.951Z,9.63
2019-02-27T00:48:42.233Z,9.00
2019-02-27T00:52:52.279Z,7.57
2019-02-27T00:57:02.150Z,10.47
2019-02-27T01:01:13.321Z,11.13
2019-02-27T01:05:23.870Z,10.50
2019-02-27T01:09:33.374Z,7.97
2019-02-27T01:13:43.522Z,7.10
2019-02-27T01:17:55.072Z,11.00
2019-02-27T01:22:03.996Z,11.50
2019-02-27T01:26:13.720Z,9.40
2019-02-27T01:30:24.436Z,13.00
2019-02-27T01:34:34.466Z,11.53
2019-02-27T01:38:43.886Z,7.90
2019-02-27T01:42:53.388Z,10.40
2019-02-27T01:47:03.033Z,13.80
2019-02-27T01:51:12.480Z,7.87
2019-02-27T01:55:22.649Z,9.50
2019-02-27T01:59:32.228Z,13.67
2019-02-27T02:03:41.977Z,13.90
2019-02-27T02:07:52.162Z,12.73
2019-02-27T02:12:01.817Z,7.70
2019-02-27T02:16:50.487Z,9.00
2019-02-27T02:21:19.288Z,8.50
2019-02-27T02:26:11.285Z,13.40
2019-02-27T02:30:47.626Z,11.47
2019-02-27T02:35:34.371Z,10.90
2019-02-27T02:40:09.670Z,9.73
2019-02-27T02:45:07.310Z,10.63
2019-02-27T02:49:24.041Z,11.33
2019-02-27T02:54:13.396Z,11.60
2019-02-27T02:58:46.986Z,14.00
2019-02-27T03:03:07.987Z,9.70
2019-02-27T03:07:46.656Z,8.60
2019-02-27T03:12:41.576Z,10.70
2019-02-27T03:17:19.286Z,11.13
2019-02-27T03:21:50.977Z,10.77
2019-02-27T03:26:53.105Z,13.20
2019-02-27T03:31:22.739Z,8.40
2019-02-27T03:36:19.607Z,11.20
2019-02-27T03:41:14.451Z,9.20
2019-02-27T03:45:49.123Z,9.90
2019-02-27T03:50:56.945Z,7.37
2019-02-27T03:55:46.165Z,8.60
2019-02-27T04:00:56.258Z,11.23
2019-02-27T04:05:56.303Z,12.97
2019-02-27T04:10:06.387Z,8.50
2019-02-27T04:14:40.118Z,8.97
2019-02-27T04:18:41.696Z,9.30
2019-02-27T04:22:50.929Z,10.00
2019-02-27T04:27:00.795Z,9.80
2019-02-27T04:31:10.475Z,8.87
2019-02-27T04:35:19.935Z,7.40
2019-02-27T04:39:29.387Z,9.50
2019-02-27T04:43:39.392Z,11.23
2019-02-27T04:47:48.952Z,6.90
2019-02-27T04:51:58.672Z,7.50
2019-02-27T04:56:08.065Z,11.67
2019-02-27T05:00:17.677Z,10.67
2019-02-27T05:04:26.820Z,8.70
2019-02-27T05:08:36.351Z,7.07
2019-02-27T05:12:48.109Z,10.30
2019-02-27T05:16:56.690Z,7.93
2019-02-27T05:21:06.336Z,10.73
2019-02-27T05:25:15.966Z,7.63
2019-02-27T05:29:25.393Z,11.53
2019-02-27T05:33:36.058Z,11.17
2019-02-27T05:37:45.760Z,9.10
2019-02-27T05:41:55.451Z,8.17
2019-02-27T05:46:04.890Z,8.27
2019-02-27T05:50:15.208Z,7.13
2019-02-27T05:54:24.449Z,8.17
2019-02-27T05:58:34.160Z,8.10
2019-02-27T06:02:44.892Z,7.30
2019-02-27T06:06:54.796Z,7.63
2019-02-27T06:11:04.203Z,8.30
2019-02-27T06:15:16.483Z,9.27
2019-02-27T06:19:25.906Z,7.50
2019-02-27T06:23:37.707Z,9.00
2019-02-27T06:27:46.204Z,7.33
2019-02-27T06:31:55.909Z,6.63
2019-02-27T06:36:07.781Z,7.27
2019-02-27T06:40:18.428Z,6.43
2019-02-27T06:44:27.991Z,7.03
2019-02-27T06:48:37.729Z,6.40
2019-02-27T06:52:47.356Z,7.73
2019-02-27T06:56:57.012Z,9.87
2019-02-27T07:01:09.128Z,6.43
2019-02-27T07:05:17.462Z,9.77
2019-02-27T07:09:26.792Z,11.40
2019-02-27T07:13:36.118Z,7.20
2019-02-27T07:17:45.487Z,7.10
2019-02-27T07:21:55.303Z,7.50
2019-02-27T07:26:04.627Z,7.27
2019-02-27T07:30:17.039Z,7.60
2019-02-27T07:34:26.529Z,11.63
2019-02-27T07:38:36.143Z,9.20
2019-02-27T07:42:45.461Z,6.87
2019-02-27T07:46:57.150Z,5.90
2019-02-27T07:51:05.653Z,8.20
2019-02-27T07:55:21.868Z,6.73
2019-02-27T07:59:26.820Z,7.83
2019-02-27T08:03:36.528Z,7.40
2019-02-27T08:07:48.769Z,5.93
2019-02-27T08:11:56.759Z,5.80
2019-02-27T08:16:05.931Z,6.30
2019-02-27T08:20:20.087Z,6.67
2019-02-27T08:24:26.974Z,8.60
2019-02-27T08:28:36.480Z,7.03
2019-02-27T08:32:46.108Z,8.20
2019-02-27T08:36:55.625Z,6.07
2019-02-27T08:41:05.622Z,6.07
2019-02-27T08:45:19.931Z,6.90
2019-02-27T08:49:26.961Z,8.03
2019-02-27T08:53:36.218Z,6.80
2019-02-27T08:57:45.436Z,5.60
2019-02-27T09:01:56.361Z,4.80
2019-02-27T09:06:05.596Z,5.90
2019-02-27T09:10:16.095Z,5.70
2019-02-27T09:14:25.530Z,7.60
2019-02-27T09:18:36.443Z,7.33
2019-02-27T09:22:46.195Z,5.40
2019-02-27T09:26:56.221Z,6.40
2019-02-27T09:31:05.769Z,5.93
2019-02-27T09:35:15.571Z,11.23
2019-02-27T09:39:25.058Z,7.63
2019-02-27T09:43:34.588Z,7.03
2019-02-27T09:47:43.837Z,6.70
2019-02-27T09:51:56.288Z,7.73
2019-02-27T09:56:04.274Z,6.50
2019-02-27T10:00:33.454Z,6.07
2019-02-27T10:04:42.975Z,6.10
2019-02-27T10:08:52.730Z,7.40
2019-02-27T10:13:03.317Z,6.50
2019-02-27T10:17:13.192Z,6.43
2019-02-27T10:21:22.503Z,7.17
2019-02-27T10:25:32.309Z,8.10
2019-02-27T10:29:41.780Z,7.93
2019-02-27T10:33:51.173Z,8.10
2019-02-27T10:38:00.797Z,6.07
2019-02-27T10:42:10.238Z,6.20
2019-02-27T10:46:23.517Z,6.00
2019-02-27T10:50:30.663Z,9.17
2019-02-27T10:54:40.061Z,5.87
2019-02-27T10:58:49.651Z,6.63
2019-02-27T11:02:58.953Z,7.87
2019-02-27T11:07:08.424Z,7.40
2019-02-27T11:11:17.977Z,6.03
2019-02-27T11:15:27.683Z,10.47
2019-02-27T11:19:37.099Z,6.60
2019-02-27T11:23:46.881Z,7.77
2019-02-27T11:27:56.331Z,10.27
2019-02-27T11:32:06.053Z,10.13
2019-02-27T11:36:15.358Z,8.23
2019-02-27T11:40:25.630Z,11.23
2019-02-27T11:44:35.071Z,11.10
2019-02-27T11:48:44.698Z,12.23
2019-02-27T11:52:54.302Z,11.07
2019-02-27T11:57:04.400Z,13.10
2019-02-27T12:01:14.313Z,12.53
2019-02-27T12:05:24.437Z,11.50
2019-02-27T12:09:35.196Z,10.73
2019-02-27T12:13:45.821Z,13.23
2019-02-27T12:18:01.480Z,9.03
2019-02-27T12:22:11.849Z,10.93
2019-02-27T12:26:21.423Z,8.30
2019-02-27T12:30:31.649Z,12.40
2019-02-27T12:34:41.446Z,6.60
2019-02-27T12:38:51.334Z,11.30
2019-02-27T12:43:00.829Z,8.70
2019-02-27T12:47:10.291Z,13.10
2019-02-27T12:51:21.070Z,10.20
2019-02-27T12:55:35.390Z,11.30
2019-02-27T12:59:41.582Z,10.03
2019-02-27T13:03:51.328Z,8.60
2019-02-27T13:08:00.809Z,14.30
2019-02-27T13:12:10.577Z,8.23
2019-02-27T13:16:20.000Z,9.90
2019-02-27T13:20:29.938Z,12.23
2019-02-27T13:24:39.288Z,11.43
2019-02-27T13:28:49.586Z,14.00
2019-02-27T13:33:01.199Z,10.63
2019-02-27T13:37:10.671Z,8.33
2019-02-27T13:41:19.951Z,9.13
2019-02-27T13:45:30.196Z,11.90
2019-02-27T13:49:39.642Z,10.27
2019-02-27T13:53:49.331Z,11.87
2019-02-27T13:58:02.604Z,14.87
2019-02-27T14:02:11.392Z,13.10
2019-02-27T14:06:22.011Z,11.43
2019-02-27T14:10:31.875Z,16.30
2019-02-27T14:14:41.487Z,15.40
2019-02-27T14:18:51.095Z,15.00
2019-02-27T14:23:01.339Z,19.27
2019-02-27T14:27:11.967Z,16.53
2019-02-27T14:31:21.893Z,13.60
2019-02-27T14:35:35.086Z,18.77
2019-02-27T14:39:42.472Z,9.60
2019-02-27T14:43:52.346Z,14.17
2019-02-27T14:48:01.885Z,9.77
2019-02-27T14:52:14.208Z,12.53
2019-02-27T14:56:24.437Z,12.63
2019-02-27T15:00:39.889Z,14.83
2019-02-27T15:04:45.938Z,13.33
2019-02-27T15:08:58.153Z,19.70
2019-02-27T15:13:07.096Z,16.03
2019-02-27T15:17:16.761Z,16.83
2019-02-27T15:21:26.136Z,18.70
2019-02-27T15:25:35.718Z,12.93
2019-02-27T15:29:45.227Z,12.70
2019-02-27T15:33:56.099Z,26.37
2019-02-27T15:38:05.759Z,12.37
2019-02-27T15:42:16.214Z,15.60
2019-02-27T15:46:26.220Z,25.93
2019-02-27T15:50:36.181Z,31.77
2019-02-27T15:54:46.633Z,21.13
2019-02-27T15:58:59.298Z,15.50
2019-02-27T16:03:10.841Z,25.50
2019-02-27T16:07:18.853Z,22.37
2019-02-27T16:11:28.377Z,18.33
2019-02-27T16:15:37.823Z,19.00
2019-02-27T16:19:47.032Z,26.00
2019-02-27T16:23:56.836Z,14.80
2019-02-27T16:28:08.965Z,61.60
2019-02-27T16:32:17.974Z,51.77
2019-02-27T16:36:36.042Z,45.87
2019-02-27T16:40:40.571Z,21.93
2019-02-27T16:44:50.295Z,17.23
2019-02-27T16:49:01.369Z,23.07
2019-02-27T16:53:16.222Z,17.50
2019-02-27T16:57:24.512Z,15.63
2019-02-27T17:01:33.131Z,14.43
2019-02-27T17:05:43.209Z,13.63
2019-02-27T17:09:54.068Z,19.50
2019-02-27T17:14:03.866Z,16.77
2019-02-27T17:18:13.572Z,20.03
2019-02-27T17:22:23.103Z,13.93
2019-02-27T17:26:35.253Z,21.07
2019-02-27T17:30:43.589Z,15.50
2019-02-27T17:34:53.110Z,18.60
2019-02-27T17:39:02.662Z,16.60
2019-02-27T17:43:13.679Z,15.30
2019-02-27T17:47:28.555Z,19.53
2019-02-27T17:51:35.761Z,15.80
2019-02-27T17:55:46.685Z,16.80
2019-02-27T17:59:58.094Z,21.33
2019-02-27T18:04:07.491Z,24.67
2019-02-27T18:08:17.283Z,17.53
2019-02-27T18:12:26.921Z,9.83
2019-02-27T18:16:37.261Z,11.20
2019-02-27T18:20:46.611Z,12.67
2019-02-27T18:24:57.374Z,12.53
2019-02-27T18:29:07.692Z,11.17
2019-02-27T18:33:18.048Z,12.43
2019-02-27T18:37:29.498Z,10.53
2019-02-27T18:41:39.735Z,9.00
2019-02-27T18:45:50.778Z,12.13
2019-02-27T18:50:01.068Z,11.63
2019-02-27T18:54:13.025Z,11.13
2019-02-27T18:58:22.502Z,8.13
2019-02-27T19:02:31.994Z,8.57
2019-02-27T19:06:43.108Z,11.13
2019-02-27T19:10:53.553Z,11.20
2019-02-27T19:15:03.678Z,20.90
2019-02-27T19:19:14.748Z,16.27
2019-02-27T19:23:25.684Z,18.80
2019-02-27T19:27:35.246Z,25.17
2019-02-27T19:31:44.842Z,19.80
2019-02-27T19:35:56.512Z,22.77
2019-02-27T19:40:05.660Z,15.17
2019-02-27T19:44:15.179Z,14.20
2019-02-27T19:48:26.220Z,15.07
2019-02-27T19:52:36.016Z,13.60
2019-02-27T19:56:45.822Z,13.40
2019-02-27T20:00:55.886Z,11.07
2019-02-27T20:05:05.792Z,10.30
2019-02-27T20:09:19.112Z,7.07
2019-02-27T20:13:28.109Z,10.60
2019-02-27T20:17:37.650Z,8.23
2019-02-27T20:21:47.098Z,10.17
2019-02-27T20:25:56.628Z,9.00
2019-02-27T20:30:07.769Z,7.03
2019-02-27T20:34:18.022Z,6.07
2019-02-27T20:38:28.799Z,8.67
2019-02-27T20:42:38.655Z,11.07
2019-02-27T20:46:49.373Z,8.10
2019-02-27T20:51:02.790Z,6.30
2019-02-27T20:55:12.120Z,8.90
2019-02-27T20:59:24.683Z,9.10
2019-02-27T21:03:33.209Z,6.97
2019-02-27T21:07:42.749Z,5.97
2019-02-27T21:11:52.471Z,9.20
2019-02-27T21:16:03.969Z,8.13
2019-02-27T21:20:13.724Z,7.70
2019-02-27T21:24:23.456Z,5.83
2019-02-27T21:28:33.022Z,7.13
2019-02-27T21:32:42.444Z,7.93
2019-02-27T21:36:52.094Z,8.60
2019-02-27T21:41:01.746Z,6.07
2019-02-27T21:45:14.494Z,6.73
2019-02-27T21:49:24.277Z,5.53
2019-02-27T21:53:33.757Z,6.70
2019-02-27T21:57:43.729Z,9.53
2019-02-27T22:01:56.107Z,5.33
2019-02-27T22:06:04.394Z,7.37
2019-02-27T22:10:18.964Z,7.03
2019-02-27T22:14:26.574Z,3.83
2019-02-27T22:18:35.955Z,5.93
2019-02-27T22:22:45.654Z,7.10
2019-02-27T22:26:55.977Z,7.57
2019-02-27T22:31:06.672Z,3.40
2019-02-27T22:35:16.840Z,4.73
2019-02-27T22:39:26.401Z,6.20
2019-02-27T22:43:35.810Z,7.70
2019-02-27T22:47:45.297Z,3.90
2019-02-27T22:51:56.028Z,9.60
2019-02-27T22:56:06.393Z,5.47
2019-02-27T23:01:01.401Z,4.83
2019-02-27T23:05:12.605Z,9.77
2019-02-27T23:09:25.579Z,4.20
2019-02-27T23:13:34.737Z,9.40
2019-02-27T23:17:45.464Z,7.30
2019-02-27T23:21:57.572Z,9.73
2019-02-27T23:26:07.422Z,5.63
2019-02-27T23:30:17.049Z,9.20
2019-02-27T23:34:26.770Z,4.57
2019-02-27T23:38:36.651Z,6.57
2019-02-27T23:42:46.136Z,8.03
2019-02-27T23:46:57.502Z,5.73
2019-02-27T23:51:06.843Z,10.13
2019-02-27T23:55:16.874Z,15.40
2019-02-27T23:59:27.187Z,8.43
